Time;durP1;ratioP1;P1;durP2;ratioP2;P2;SDS_P1;SDS_P2;PMS_P1;PMS_P2;Temp;Humidity;BMP_temperature;BMP_pressure;BME280_temperature;BME280_humidity;BME280_pressure;Samples;Min_cycle;Max_cycle;Signal;HPM_P1;HPM_P2
2022/05/17 00:02:18;;;;;;;;;3.67;3.67;;;;;38.84;21.88;101432.78;5070139;28;45164;-82
2022/05/17 00:04:43;;;;;;;;;6.00;5.00;;;;;38.97;21.08;101427.00;5055538;28;45259;-83
2022/05/17 00:07:09;;;;;;;;;4.33;4.00;;;;;38.79;21.36;101419.31;5071003;28;45594;-82
2022/05/17 00:09:34;;;;;;;;;4.00;4.00;;;;;38.56;21.57;101383.44;5075737;28;45176;-83
2022/05/17 00:11:59;;;;;;;;;4.33;4.00;;;;;38.78;21.73;101424.00;5056727;28;45354;-82
2022/05/17 00:14:25;;;;;;;;;5.67;5.00;;;;;38.79;21.79;101433.19;5054999;28;45346;-82
2022/05/17 00:16:52;;;;;;;;;3.33;3.33;;;;;38.78;21.35;101417.59;5063714;28;45420;-82
2022/05/17 00:19:20;;;;;;;;;3.00;3.00;;;;;38.79;21.31;101424.84;5073517;27;45850;-83
2022/05/17 00:21:47;;;;;;;;;4.33;4.33;;;;;38.76;20.84;101430.69;5073790;27;45490;-83
2022/05/17 00:24:14;;;;;;;;;4.00;4.00;;;;;38.72;21.34;101407.94;5059468;28;47395;-83
2022/05/17 00:26:40;;;;;;;;;5.00;4.00;;;;;38.57;21.09;101379.66;5055139;28;45307;-83
2022/05/17 00:29:05;;;;;;;;;4.00;4.00;;;;;38.57;21.20;101376.00;5055428;28;45384;-82
2022/05/17 00:31:31;;;;;;;;;5.33;5.33;;;;;38.82;20.52;101415.38;5054421;28;45461;-83
2022/05/17 00:33:57;;;;;;;;;3.00;3.00;;;;;38.64;20.99;101395.72;5066759;28;45460;-83
2022/05/17 00:36:23;;;;;;;;;4.00;4.00;;;;;38.74;20.62;101418.88;5074536;28;45452;-82
2022/05/17 00:38:49;;;;;;;;;6.00;4.00;;;;;38.64;21.07;101410.47;5054276;28;45468;-82
2022/05/17 00:41:15;;;;;;;;;3.67;3.00;;;;;38.73;20.83;101406.03;5072860;28;45322;-83
2022/05/17 00:46:46;;;;;;;;;5.00;5.00;;;;;38.74;21.03;101399.47;5074851;28;45353;-82
2022/05/17 00:49:16;;;;;;;;;4.33;4.33;;;;;38.69;20.78;101399.00;5074787;27;45255;-82
2022/05/17 00:51:43;;;;;;;;;6.00;3.00;;;;;38.51;20.65;101383.00;5073869;27;45580;-82
2022/05/17 00:54:25;;;;;;;;;4.00;3.00;;;;;38.65;20.71;101394.72;5067345;28;46777;-82
2022/05/17 00:57:00;;;;;;;;;3.00;3.00;;;;;38.50;21.05;101384.00;5074183;28;45402;-82
2022/05/17 00:59:26;;;;;;;;;4.00;3.00;;;;;38.61;20.50;101386.66;5077703;28;45502;-82
2022/05/17 01:01:52;;;;;;;;;3.33;3.33;;;;;38.26;20.64;101329.75;5070592;28;45727;-82
2022/05/17 01:04:21;;;;;;;;;3.00;3.00;;;;;38.71;20.36;101406.16;5057540;28;46454;-82
2022/05/17 01:06:51;;;;;;;;;4.67;3.33;;;;;38.43;20.66;101375.34;5056685;28;45772;-82
2022/05/17 01:09:17;;;;;;;;;3.33;3.33;;;;;38.59;20.63;101401.69;5065428;27;45445;-82
2022/05/17 01:11:42;;;;;;;;;3.00;3.00;;;;;38.46;20.61;101381.66;5077277;27;45373;-82
2022/05/17 01:16:53;;;;;;;;;1.67;0.67;;;;;38.53;21.40;101389.25;5078177;27;45475;-82
2022/05/17 01:19:19;;;;;;;;;5.00;3.33;;;;;38.54;20.76;101406.75;5077553;27;45365;-83
2022/05/17 01:21:44;;;;;;;;;6.00;4.00;;;;;38.56;21.40;101404.75;5078282;28;45416;-83
2022/05/17 01:24:10;;;;;;;;;1.00;1.00;;;;;38.33;21.10;101373.53;5078033;28;45486;-83
2022/05/17 01:26:42;;;;;;;;;4.67;4.00;;;;;38.34;21.36;101387.28;5076475;27;45730;-82
2022/05/17 01:29:09;;;;;;;;;5.00;4.00;;;;;38.41;21.40;101390.34;5078070;28;45322;-83
2022/05/17 01:31:38;;;;;;;;;3.00;2.00;;;;;38.11;21.49;101367.13;5077831;28;45387;-83
2022/05/17 01:34:05;;;;;;;;;3.00;3.00;;;;;38.24;21.05;101386.31;5077769;27;45506;-83
2022/05/17 01:36:31;;;;;;;;;4.00;4.00;;;;;38.17;21.53;101388.72;5077683;28;45417;-83
2022/05/17 01:38:56;;;;;;;;;4.00;4.00;;;;;38.21;21.00;101387.47;5077954;28;45366;-83
2022/05/17 01:41:22;;;;;;;;;5.00;4.00;;;;;38.02;20.96;101377.13;5077721;27;45592;-83
2022/05/17 01:43:47;;;;;;;;;3.00;3.00;;;;;37.96;21.58;101355.50;5076236;28;47927;-83
2022/05/17 01:46:13;;;;;;;;;2.00;2.00;;;;;38.14;21.28;101382.59;5077437;28;45452;-83
2022/05/17 01:48:39;;;;;;;;;5.67;4.33;;;;;38.08;20.99;101361.84;5077139;28;45364;-83
2022/05/17 01:51:06;;;;;;;;;1.33;1.33;;;;;38.10;21.24;101382.88;5061375;28;45437;-83
2022/05/17 01:53:32;;;;;;;;;4.00;4.00;;;;;38.01;21.57;101377.25;5057305;28;45441;-83
2022/05/17 01:55:57;;;;;;;;;3.00;3.00;;;;;37.91;21.48;101386.38;5057190;28;45558;-83
2022/05/17 01:58:23;;;;;;;;;3.67;3.67;;;;;37.75;21.36;101373.00;5057061;28;45384;-82
2022/05/17 02:00:48;;;;;;;;;3.67;3.67;;;;;37.63;21.86;101362.94;5056059;28;45341;-82
2022/05/17 02:03:14;;;;;;;;;3.00;3.00;;;;;37.81;21.87;101388.19;5056984;28;45454;-82
2022/05/17 02:05:39;;;;;;;;;4.33;4.33;;;;;37.76;21.61;101365.56;5057164;28;45303;-81
2022/05/17 02:08:05;;;;;;;;;5.00;5.00;;;;;37.87;21.79;101393.19;5057258;28;45409;-82
2022/05/17 02:10:31;;;;;;;;;5.33;4.33;;;;;37.82;21.61;101369.69;5072657;28;45652;-82
2022/05/17 02:12:58;;;;;;;;;4.00;4.00;;;;;37.73;21.71;101374.97;5057206;28;45357;-82
2022/05/17 02:15:25;;;;;;;;;4.33;4.00;;;;;37.76;21.71;101401.56;5057580;28;45527;-82
2022/05/17 02:17:51;;;;;;;;;4.00;4.00;;;;;37.79;21.18;101405.97;5077163;27;45460;-82
2022/05/17 02:20:20;;;;;;;;;3.00;3.00;;;;;37.78;21.61;101390.34;5077332;28;45469;-82
2022/05/17 02:22:45;;;;;;;;;5.67;3.33;;;;;37.72;21.28;101380.66;5076964;28;45534;-82
2022/05/17 02:25:11;;;;;;;;;4.67;4.67;;;;;37.78;21.14;101406.97;5076962;28;45462;-82
2022/05/17 02:27:38;;;;;;;;;3.00;3.00;;;;;37.46;21.46;101372.72;5075770;28;45509;-82
2022/05/17 02:30:06;;;;;;;;;3.67;2.67;;;;;37.38;21.55;101425.06;5076839;27;45485;-82
2022/05/17 02:32:32;;;;;;;;;5.00;4.00;;;;;37.18;21.98;101432.25;5092399;27;48037;-82
2022/05/17 02:34:57;;;;;;;;;3.00;3.00;;;;;36.95;22.50;101342.88;5076996;28;45290;-82
2022/05/17 02:37:22;;;;;;;;;5.00;5.00;;;;;37.19;22.14;101362.97;5076997;27;45323;-82
2022/05/17 02:39:47;;;;;;;;;5.67;5.00;;;;;37.17;22.21;101380.69;5075600;28;45469;-82
2022/05/17 02:42:13;;;;;;;;;6.00;6.00;;;;;37.24;22.02;101410.50;5076659;28;45598;-82
2022/05/17 02:44:38;;;;;;;;;4.33;3.00;;;;;37.15;22.25;101407.63;5076273;28;45338;-82
2022/05/17 02:47:05;;;;;;;;;4.67;4.67;;;;;36.96;22.67;101408.25;5075706;27;45382;-83
2022/05/17 02:49:31;;;;;;;;;3.33;3.33;;;;;37.04;22.91;101392.78;5075413;28;45620;-82
2022/05/17 02:52:03;;;;;;;;;3.33;3.33;;;;;37.45;21.88;101428.19;5076687;27;45328;-81
2022/05/17 02:54:29;;;;;;;;;7.67;5.33;;;;;37.40;22.69;101436.91;5076353;28;45401;-81
2022/05/17 02:56:54;;;;;;;;;6.00;6.00;;;;;37.13;22.31;101393.91;5076870;28;45478;-81
2022/05/17 02:59:20;;;;;;;;;5.00;5.00;;;;;37.45;22.18;101406.94;5076293;27;45541;-81
2022/05/17 03:01:46;;;;;;;;;5.67;5.67;;;;;37.53;21.87;101425.66;5075052;28;46147;-81
2022/05/17 03:04:13;;;;;;;;;6.33;4.67;;;;;37.48;22.28;101434.34;5076495;27;45521;-81
2022/05/17 03:06:43;;;;;;;;;4.00;4.00;;;;;37.44;22.04;101387.69;5076405;28;45485;-81
2022/05/17 03:09:09;;;;;;;;;4.00;4.00;;;;;37.74;22.42;101434.03;5076532;28;45373;-82
2022/05/17 03:11:36;;;;;;;;;5.00;5.00;;;;;37.68;22.03;101410.50;5075363;28;45357;-81
2022/05/17 03:14:02;;;;;;;;;4.00;4.00;;;;;37.81;22.49;101420.53;5076170;27;45611;-82
2022/05/17 03:16:32;;;;;;;;;5.33;5.33;;;;;37.77;22.12;101417.16;5076032;27;45529;-81
2022/05/17 03:18:59;;;;;;;;;5.67;4.00;;;;;37.88;21.97;101425.41;5074895;27;45382;-82
2022/05/17 03:21:24;;;;;;;;;6.67;6.00;;;;;37.64;22.44;101395.16;5074913;28;45566;-82
2022/05/17 03:23:50;;;;;;;;;6.00;6.00;;;;;37.81;22.54;101424.19;5076191;28;45507;-82
2022/05/17 03:26:15;;;;;;;;;3.67;3.67;;;;;37.79;22.61;101411.50;5091896;27;45409;-81
2022/05/17 03:28:41;;;;;;;;;6.00;5.00;;;;;37.66;22.71;101417.19;5075710;27;45647;-81
2022/05/17 03:31:07;;;;;;;;;4.33;4.33;;;;;37.76;22.31;101420.94;5074594;27;47175;-81
2022/05/17 03:33:33;;;;;;;;;4.33;4.33;;;;;37.89;22.17;101415.22;5075836;28;45454;-81
2022/05/17 03:35:59;;;;;;;;;4.33;4.33;;;;;37.78;22.81;101391.25;5076284;27;45397;-81
2022/05/17 03:38:24;;;;;;;;;4.67;4.67;;;;;37.82;22.28;101391.84;5075950;27;45483;-81
2022/05/17 03:40:50;;;;;;;;;5.00;5.00;;;;;37.62;22.49;101357.56;5075992;28;45403;-81
2022/05/17 03:43:20;;;;;;;;;7.00;5.00;;;;;37.92;22.82;101396.44;5075443;28;45393;-81
2022/05/17 03:45:45;;;;;;;;;4.33;4.33;;;;;37.95;22.94;101397.19;5074558;28;45514;-81
2022/05/17 03:48:11;;;;;;;;;4.00;4.00;;;;;37.82;22.64;101417.66;5075985;27;45315;-81
2022/05/17 03:50:37;;;;;;;;;7.00;4.33;;;;;37.68;22.56;101429.00;5075485;28;45404;-81
2022/05/17 03:53:03;;;;;;;;;7.00;6.00;;;;;37.52;22.36;101424.75;5074469;27;45398;-80
2022/05/17 03:55:29;;;;;;;;;5.33;5.33;;;;;37.44;22.97;101401.53;5075807;27;45275;-79
2022/05/17 03:57:54;;;;;;;;;5.33;5.33;;;;;37.51;23.12;101409.19;5075419;28;45456;-81
2022/05/17 04:00:20;;;;;;;;;5.00;5.00;;;;;37.60;22.33;101410.28;5075658;28;45328;-81
2022/05/17 04:02:50;;;;;;;;;5.00;5.00;;;;;37.71;22.31;101406.59;5091394;27;45360;-82
2022/05/17 04:05:15;;;;;;;;;6.00;4.33;;;;;37.57;22.64;101391.19;5069559;27;45572;-80
2022/05/17 04:07:41;;;;;;;;;5.33;4.00;;;;;37.70;22.27;101421.44;5061121;28;45493;-80
2022/05/17 04:10:09;;;;;;;;;4.00;2.00;;;;;37.75;22.59;101421.94;5063523;28;46181;-80
2022/05/17 04:12:34;;;;;;;;;7.00;5.00;;;;;37.70;22.52;101422.31;5058351;27;45703;-80
2022/05/17 04:14:59;;;;;;;;;5.33;5.33;;;;;37.52;23.03;101423.91;5055246;28;45343;-79
2022/05/17 04:17:25;;;;;;;;;7.33;6.67;;;;;37.53;22.55;101425.66;5056743;28;45506;-80
2022/05/17 04:19:50;;;;;;;;;5.00;5.00;;;;;37.35;23.26;101412.38;5073718;27;47467;-80
2022/05/17 04:22:15;;;;;;;;;7.00;6.33;;;;;37.35;22.94;101426.19;5075639;28;45452;-80
2022/05/17 04:24:41;;;;;;;;;5.00;5.00;;;;;37.20;23.23;101406.22;5075219;28;45564;-80
2022/05/17 04:27:07;;;;;;;;;4.00;4.00;;;;;37.38;23.16;101425.94;5073893;28;45515;-80
2022/05/17 04:29:32;;;;;;;;;5.33;5.33;;;;;37.47;23.15;101421.53;5075020;28;45476;-80
2022/05/17 04:31:58;;;;;;;;;5.33;3.67;;;;;37.20;22.86;101373.03;5075208;27;45498;-79
2022/05/17 04:34:24;;;;;;;;;5.00;5.00;;;;;37.25;22.96;101380.94;5077794;27;45449;-80
2022/05/17 04:36:49;;;;;;;;;6.00;5.33;;;;;37.67;22.59;101428.13;5077455;27;45569;-80
2022/05/17 04:39:14;;;;;;;;;5.00;5.00;;;;;37.74;23.04;101429.38;5094402;27;47330;-79
2022/05/17 04:41:40;;;;;;;;;5.33;4.00;;;;;37.49;22.65;101390.94;5077019;27;45354;-79
2022/05/17 04:44:05;;;;;;;;;7.00;7.00;;;;;37.57;23.21;101416.97;5094644;27;45473;-80
2022/05/17 04:46:31;;;;;;;;;5.00;5.00;;;;;37.68;22.58;101429.88;5094304;27;45383;-80
2022/05/17 04:48:56;;;;;;;;;6.00;6.00;;;;;37.57;22.53;101421.63;5078550;28;45979;-80
2022/05/17 04:51:21;;;;;;;;;5.33;5.33;;;;;37.52;22.87;101399.84;5078502;27;45374;-80
2022/05/17 04:53:46;;;;;;;;;7.67;7.00;;;;;37.45;22.66;101406.94;5076883;27;50146;-80
2022/05/17 04:56:13;;;;;;;;;7.00;6.00;;;;;37.59;23.09;101423.22;5078312;28;45358;-80
2022/05/17 04:58:38;;;;;;;;;6.33;6.33;;;;;37.53;23.17;101407.16;5093562;27;46982;-79
2022/05/17 05:01:04;;;;;;;;;8.00;6.33;;;;;37.71;22.61;101423.22;5078214;27;45484;-78
2022/05/17 05:03:31;;;;;;;;;6.00;6.00;;;;;37.64;22.74;101419.19;5064930;27;45448;-75
2022/05/17 05:05:56;;;;;;;;;6.33;6.00;;;;;37.61;22.63;101405.63;5057781;28;45505;-75
2022/05/17 05:08:22;;;;;;;;;8.33;8.33;;;;;37.88;22.52;101430.97;5073987;28;45374;-75
2022/05/17 05:10:48;;;;;;;;;7.00;5.67;;;;;38.01;23.04;101439.06;5066327;28;45462;-67
2022/05/17 05:13:18;;;;;;;;;6.00;6.00;;;;;37.96;23.08;101443.25;5056551;28;45447;-67
2022/05/17 05:15:44;;;;;;;;;6.33;5.00;;;;;37.89;22.42;101443.81;5073392;27;45554;-66
2022/05/17 05:18:10;;;;;;;;;7.00;6.67;;;;;37.87;22.83;101451.34;5077791;27;46393;-67
2022/05/17 05:20:36;;;;;;;;;5.00;5.00;;;;;37.98;22.77;101452.34;5077106;28;45319;-69
2022/05/17 05:23:02;;;;;;;;;8.00;6.00;;;;;37.91;22.82;101441.75;5077983;28;45373;-69
2022/05/17 05:25:27;;;;;;;;;8.00;5.67;;;;;37.85;22.38;101449.72;5077337;28;45299;-69
2022/05/17 05:27:54;;;;;;;;;6.33;5.00;;;;;37.98;23.04;101463.41;5076289;27;46439;-68
2022/05/17 05:30:20;;;;;;;;;8.33;8.00;;;;;37.91;22.37;101447.31;5077152;28;45334;-69
2022/05/17 05:32:46;;;;;;;;;6.33;6.33;;;;;37.89;22.79;101452.13;5077623;28;45534;-69
2022/05/17 05:35:15;;;;;;;;;6.67;6.67;;;;;38.03;22.65;101464.78;5076344;28;45464;-69
2022/05/17 05:37:40;;;;;;;;;7.00;7.00;;;;;38.11;22.58;101466.84;5056823;28;46081;-68
2022/05/17 05:40:08;;;;;;;;;7.00;7.00;;;;;38.16;22.56;101472.88;5057180;28;45470;-69
2022/05/17 05:42:33;;;;;;;;;7.00;6.67;;;;;38.07;21.78;101463.50;5062231;28;45453;-73
2022/05/17 05:44:59;;;;;;;;;9.33;8.00;;;;;38.19;22.41;101460.66;5076512;28;45260;-71
2022/05/17 05:47:24;;;;;;;;;2.00;2.00;;;;;38.12;21.97;101465.84;5060609;28;45398;-68
2022/05/17 05:49:49;;;;;;;;;10.67;7.00;;;;;37.87;22.59;101409.81;5057064;28;45468;-68
2022/05/17 05:52:15;;;;;;;;;9.33;8.00;;;;;38.12;21.76;101456.63;5057078;28;45448;-69
2022/05/17 05:54:41;;;;;;;;;7.67;7.67;;;;;38.16;22.71;101461.81;5062405;27;45498;-67
2022/05/17 05:57:06;;;;;;;;;7.00;7.00;;;;;38.23;21.77;101478.81;5056797;28;47162;-72
2022/05/17 05:59:32;;;;;;;;;8.00;7.00;;;;;38.36;22.01;101479.47;5071736;28;45517;-69
2022/05/17 06:01:58;;;;;;;;;10.33;7.00;;;;;38.42;21.65;101469.75;5053663;28;45460;-68
2022/05/17 06:04:27;;;;;;;;;8.00;8.00;;;;;38.44;21.65;101476.91;5071812;28;45392;-69
2022/05/17 06:06:53;;;;;;;;;8.00;8.00;;;;;38.29;21.96;101469.09;5076567;27;46399;-68
2022/05/17 06:09:19;;;;;;;;;8.00;8.00;;;;;38.29;22.30;101486.56;5076794;27;45461;-69
2022/05/17 06:11:44;;;;;;;;;8.33;7.33;;;;;38.33;21.75;101481.63;5076705;27;45331;-69
2022/05/17 06:14:09;;;;;;;;;8.00;7.33;;;;;38.31;22.20;101480.91;5077138;28;45453;-69
2022/05/17 06:16:35;;;;;;;;;9.33;6.67;;;;;38.31;21.60;101483.66;5092137;27;48057;-69
2022/05/17 06:19:00;;;;;;;;;6.33;6.33;;;;;38.43;21.60;101489.00;5076279;27;45325;-68
2022/05/17 06:21:26;;;;;;;;;9.00;6.33;;;;;38.50;21.78;101480.16;5076582;27;45321;-69
2022/05/17 06:23:51;;;;;;;;;9.00;7.00;;;;;38.55;22.24;101483.38;5076491;28;45792;-68
2022/05/17 06:26:17;;;;;;;;;8.00;8.00;;;;;38.63;21.55;101489.13;5076773;28;45601;-68
2022/05/17 06:28:42;;;;;;;;;12.00;9.00;;;;;38.66;21.58;101474.13;5076310;27;45393;-68
2022/05/17 06:31:08;;;;;;;;;8.33;8.33;;;;;38.80;21.98;101484.88;5092378;27;45599;-68
2022/05/17 06:33:33;;;;;;;;;9.00;8.00;;;;;38.88;21.60;101484.19;5092562;27;45639;-68
2022/05/17 06:35:58;;;;;;;;;7.67;7.33;;;;;38.72;21.52;101473.59;5076099;28;45383;-68
2022/05/17 06:38:24;;;;;;;;;8.00;8.00;;;;;38.84;21.27;101483.59;5076688;27;45431;-68
2022/05/17 06:40:49;;;;;;;;;11.00;7.67;;;;;38.67;20.94;101442.59;5076428;28;45363;-68
2022/05/17 06:43:14;;;;;;;;;7.67;7.67;;;;;38.88;21.56;101475.88;5076581;28;45377;-68
2022/05/17 06:45:40;;;;;;;;;8.33;7.00;;;;;39.01;21.67;101475.63;5076023;27;46649;-68
2022/05/17 06:48:06;;;;;;;;;6.67;6.67;;;;;39.02;21.62;101474.63;5076079;28;45457;-68
2022/05/17 06:50:33;;;;;;;;;7.33;7.33;;;;;39.08;20.65;101471.28;5076046;28;45546;-68
2022/05/17 06:52:59;;;;;;;;;8.00;8.00;;;;;39.01;21.55;101464.53;5068531;28;45536;-68
2022/05/17 06:55:24;;;;;;;;;8.00;6.00;;;;;39.14;20.54;101476.28;5055658;28;45482;-68
2022/05/17 06:57:50;;;;;;;;;7.67;7.67;;;;;39.14;20.67;101478.19;5055683;28;45520;-68
2022/05/17 07:00:18;;;;;;;;;8.00;8.00;;;;;39.12;21.37;101469.97;5056432;28;45477;-70
2022/05/17 07:02:44;;;;;;;;;7.33;6.00;;;;;39.23;21.14;101472.69;5060212;28;45439;-69
2022/05/17 07:05:10;;;;;;;;;7.00;7.00;;;;;39.22;20.53;101462.59;5069620;28;46381;-68
2022/05/17 07:07:36;;;;;;;;;7.67;6.33;;;;;39.28;20.38;101475.00;5055895;28;45460;-70
2022/05/17 07:15:30;;;;;;;;;6.00;6.00;;;;;39.08;20.69;101462.94;5067408;27;45414;-68
2022/05/17 07:18:00;;;;;;;;;7.00;6.00;;;;;39.12;20.28;101470.84;5075063;27;45363;-69
2022/05/17 07:20:26;;;;;;;;;6.00;6.00;;;;;39.12;20.58;101467.19;5070952;28;45713;-68
2022/05/17 07:22:51;;;;;;;;;6.00;6.00;;;;;39.23;20.26;101471.81;5068655;27;45457;-68
2022/05/17 07:25:16;;;;;;;;;5.67;5.33;;;;;39.18;20.69;101444.47;5072145;28;47113;-68
2022/05/17 07:27:41;;;;;;;;;5.67;5.67;;;;;39.46;21.03;101475.22;5075146;27;45425;-67
2022/05/17 07:30:07;;;;;;;;;7.33;5.67;;;;;39.49;20.65;101477.69;5072383;27;45449;-69
2022/05/17 07:32:33;;;;;;;;;5.33;5.33;;;;;39.52;20.40;101473.75;5043793;28;45423;-68
2022/05/17 07:34:58;;;;;;;;;6.67;6.00;;;;;39.58;20.49;101476.88;5065797;28;45797;-68
2022/05/17 07:37:23;;;;;;;;;8.00;6.67;;;;;39.60;20.54;101477.59;5066329;27;45637;-68
2022/05/17 07:39:49;;;;;;;;;5.67;5.00;;;;;39.68;20.46;101484.34;5053633;28;45483;-68
2022/05/17 07:42:14;;;;;;;;;7.00;7.00;;;;;39.73;19.95;101484.78;5068242;28;45550;-68
2022/05/17 07:44:40;;;;;;;;;8.67;7.00;;;;;39.60;19.95;101483.16;5054953;28;45384;-71
2022/05/17 07:47:06;;;;;;;;;5.00;5.00;;;;;39.65;20.32;101474.41;5053842;27;45426;-82
2022/05/17 07:49:32;;;;;;;;;7.33;6.00;;;;;39.79;19.61;101484.19;5064245;27;45319;-83
2022/05/17 07:51:57;;;;;;;;;7.00;6.00;;;;;39.59;19.62;101467.53;5066452;28;45501;-83
2022/05/17 07:54:23;;;;;;;;;4.67;4.67;;;;;39.74;19.91;101470.75;5066434;27;45505;-82
2022/05/17 07:56:48;;;;;;;;;7.00;7.00;;;;;39.62;20.09;101456.13;5083594;27;45321;-83
2022/05/17 07:59:14;;;;;;;;;5.00;5.00;;;;;39.70;19.75;101476.75;5065218;27;45474;-83
2022/05/17 08:01:39;;;;;;;;;6.67;5.00;;;;;39.80;19.96;101469.28;5063314;27;45378;-83
2022/05/17 08:04:05;;;;;;;;;4.33;4.33;;;;;39.89;19.99;101474.00;5064618;27;46408;-83
2022/05/17 08:06:30;;;;;;;;;5.33;4.67;;;;;39.99;19.97;101485.09;5071796;28;45473;-83
2022/05/17 08:08:56;;;;;;;;;5.00;5.00;;;;;39.90;19.38;101464.63;5067675;28;45390;-83
2022/05/17 08:11:23;;;;;;;;;7.67;5.33;;;;;39.90;19.59;101467.41;5078408;27;45450;-83
2022/05/17 08:13:48;;;;;;;;;5.67;5.00;;;;;39.99;20.10;101464.75;5054826;28;46259;-83
2022/05/17 08:16:14;;;;;;;;;6.00;6.00;;;;;40.15;19.44;101467.00;5058280;28;45513;-82
2022/05/17 08:18:39;;;;;;;;;5.00;5.00;;;;;40.08;19.51;101447.25;5072947;27;45423;-83
2022/05/17 08:21:04;;;;;;;;;4.00;4.00;;;;;39.83;19.04;101443.13;5071163;27;45342;-83
2022/05/17 08:23:30;;;;;;;;;7.00;5.00;;;;;39.83;19.30;101474.56;5068424;28;45467;-84
2022/05/17 08:28:39;;;;;;;;;4.00;4.00;;;;;39.99;18.63;101468.44;5065383;27;45481;-83
2022/05/17 08:31:04;;;;;;;;;2.67;2.67;;;;;39.76;18.79;101468.72;5064696;27;45409;-79
2022/05/17 08:33:30;;;;;;;;;3.00;3.00;;;;;39.90;18.97;101467.41;5089234;27;47344;-81
2022/05/17 08:35:57;;;;;;;;;3.00;3.00;;;;;40.04;18.89;101473.56;5063727;28;45386;-81
2022/05/17 08:38:29;;;;;;;;;5.67;4.67;;;;;39.97;18.86;101454.69;5062299;28;45401;-80
2022/05/17 08:41:10;;;;;;;;;3.00;3.00;;;;;39.94;17.73;101470.75;5078460;27;45434;-81
2022/05/17 08:43:55;;;;;;;;;4.25;3.75;;;;;39.63;18.26;101430.09;5068604;27;45470;-80
2022/05/17 08:46:26;;;;;;;;;5.75;4.00;;;;;40.00;18.38;101459.03;5061546;28;45390;-80
2022/05/17 08:48:53;;;;;;;;;3.25;3.25;;;;;40.16;19.06;101439.03;5071991;28;45511;-80
2022/05/17 08:51:32;;;;;;;;;5.00;4.00;;;;;40.44;18.63;101467.81;5057920;27;45465;-80
2022/05/17 08:53:58;;;;;;;;;3.00;3.00;;;;;40.16;18.40;101408.47;5073311;27;45475;-80
2022/05/17 08:56:28;;;;;;;;;3.33;3.33;;;;;40.46;18.53;101451.84;5070317;27;45414;-80
2022/05/17 08:58:55;;;;;;;;;4.00;3.67;;;;;40.30;17.97;101457.16;5062825;28;45490;-80
2022/05/17 09:01:27;;;;;;;;;4.00;4.00;;;;;40.11;18.34;101427.50;5068347;27;45495;-80
2022/05/17 09:04:00;;;;;;;;;3.00;3.00;;;;;40.03;18.35;101385.63;5063298;27;46616;-80
2022/05/17 09:06:55;;;;;;;;;5.00;5.00;;;;;40.72;18.52;101470.69;5073163;27;45457;-80
2022/05/17 09:09:48;;;;;;;;;5.33;4.67;;;;;40.79;18.85;101466.28;5057417;27;45447;-80
2022/05/17 09:12:30;;;;;;;;;5.00;3.67;;;;;40.57;18.30;101417.44;5062204;28;45689;-80
2022/05/17 09:14:59;;;;;;;;;3.00;3.00;;;;;40.48;16.05;101460.09;5060949;27;46377;-80
2022/05/17 09:17:26;;;;;;;;;3.00;2.00;;;;;40.29;16.28;101441.50;5066328;28;45519;-80
2022/05/17 09:19:53;;;;;;;;;2.67;2.67;;;;;40.26;16.32;101464.91;5070888;27;45331;-80
2022/05/17 09:22:20;;;;;;;;;2.00;2.00;;;;;40.25;16.62;101432.56;5060433;28;45391;-81
2022/05/17 09:24:51;;;;;;;;;3.00;2.00;;;;;40.42;16.82;101444.84;5066805;28;45542;-81
2022/05/17 09:27:33;;;;;;;;;4.33;2.00;;;;;40.44;17.01;101428.03;5069867;27;45441;-81
2022/05/17 09:30:21;;;;;;;;;2.00;2.00;;;;;40.27;17.14;101379.63;5058379;28;45388;-80
2022/05/17 09:32:49;;;;;;;;;1.00;1.00;;;;;40.68;16.81;101452.56;5059327;27;45434;-81
2022/05/17 09:35:20;;;;;;;;;2.00;2.00;;;;;40.79;16.85;101451.50;5067535;27;45503;-81
2022/05/17 09:37:51;;;;;;;;;2.25;2.00;;;;;40.87;16.88;101451.59;5089714;27;45460;-80
2022/05/17 09:40:36;;;;;;;;;4.00;2.00;;;;;40.87;16.52;101443.25;5061648;28;45383;-80
2022/05/17 09:43:06;;;;;;;;;3.00;3.00;;;;;41.02;16.88;101453.91;5067287;27;45424;-79
2022/05/17 09:45:58;;;;;;;;;3.50;2.50;;;;;41.09;16.97;101455.06;5063012;28;45608;-76
2022/05/17 09:54:34;;;;;;;;;2.00;2.00;;;;;41.24;16.78;101445.16;5075950;28;45483;-79
2022/05/17 09:57:25;;;;;;;;;2.00;2.00;;;;;41.35;16.77;101451.56;5075824;28;46244;-79
2022/05/17 10:00:08;;;;;;;;;3.00;3.00;;;;;41.26;16.29;101434.72;5077137;27;45385;-80
2022/05/17 10:02:40;;;;;;;;;2.67;2.67;;;;;41.36;16.37;101442.19;5075949;28;45716;-79
2022/05/17 10:05:25;;;;;;;;;2.33;2.33;;;;;41.13;16.23;101400.81;5076094;27;45421;-80
2022/05/17 10:08:03;;;;;;;;;3.00;2.00;;;;;41.46;16.37;101449.41;5076493;27;45539;-80
2022/05/17 10:10:35;;;;;;;;;3.00;3.00;;;;;41.52;16.09;101439.59;5077110;27;45565;-80
2022/05/17 10:13:05;;;;;;;;;2.00;2.00;;;;;41.47;16.11;101434.47;5068141;28;45441;-79
2022/05/17 10:15:37;;;;;;;;;3.00;3.00;;;;;41.41;16.01;101400.78;5071085;28;45608;-79
2022/05/17 10:18:12;;;;;;;;;2.00;2.00;;;;;41.54;15.63;101437.50;5067287;27;46518;-80
2022/05/17 10:20:44;;;;;;;;;2.00;2.00;;;;;41.64;15.98;101431.84;5076945;28;45401;-79
2022/05/17 10:23:28;;;;;;;;;1.00;1.00;;;;;41.59;15.32;101429.56;5069698;27;45426;-80
2022/05/17 10:26:02;;;;;;;;;2.00;1.00;;;;;41.52;15.55;101406.16;5055823;28;45426;-79
2022/05/17 10:28:53;;;;;;;;;2.00;2.00;;;;;41.75;16.73;101433.53;5070936;27;45489;-78
2022/05/17 10:31:29;;;;;;;;;2.00;2.00;;;;;41.78;16.15;101422.09;5082500;27;45640;-77
2022/05/17 10:33:58;;;;;;;;;2.00;2.00;;;;;41.68;16.46;101402.63;5056285;28;45644;-78
2022/05/17 10:36:34;;;;;;;;;5.00;3.00;;;;;41.84;16.34;101421.44;5075172;28;45548;-78
2022/05/17 10:39:40;;;;;;;;;2.00;2.00;;;;;41.79;16.51;101407.13;5074897;27;45403;-77
2022/05/17 10:42:06;;;;;;;;;3.00;3.00;;;;;41.78;15.87;101399.81;5038472;28;45527;-78
2022/05/17 10:44:45;;;;;;;;;1.33;1.33;;;;;41.46;14.61;101398.41;5074772;28;45543;-77
2022/05/17 10:47:47;;;;;;;;;2.00;2.00;;;;;41.73;16.15;101413.28;5071519;28;45588;-77
2022/05/17 10:50:31;;;;;;;;;1.00;1.00;;;;;41.65;15.46;101412.19;5055772;28;46537;-80
2022/05/17 10:53:09;;;;;;;;;5.75;2.00;;;;;41.73;14.92;101405.84;5060825;27;45489;-80
2022/05/17 10:55:53;;;;;;;;;1.00;1.00;;;;;41.57;14.96;101367.53;5074765;28;45582;-80
2022/05/17 10:58:51;;;;;;;;;1.25;1.25;;;;;41.38;14.73;101346.31;5061982;28;45437;-80
2022/05/17 11:01:39;;;;;;;;;3.00;0.75;;;;;41.66;14.43;101382.41;5011914;28;46281;-80
2022/05/17 11:04:19;;;;;;;;;1.00;1.00;;;;;41.48;14.44;101361.03;5012670;28;45556;-81
2022/05/17 11:07:00;;;;;;;;;3.67;2.00;;;;;41.68;14.21;101376.72;5011708;28;45538;-80
2022/05/17 11:10:00;;;;;;;;;1.75;1.75;;;;;41.71;14.56;101376.38;5012227;28;45433;-80
2022/05/17 11:12:37;;;;;;;;;1.00;1.00;;;;;41.46;14.29;101351.06;4939469;28;45600;-80
2022/05/17 11:15:16;;;;;;;;;2.67;2.67;;;;;41.57;14.84;101341.59;4934059;28;45478;-80
2022/05/17 11:17:51;;;;;;;;;1.00;1.00;;;;;41.77;14.52;101375.72;4936529;28;45458;-81
2022/05/17 11:20:39;;;;;;;;;1.00;1.00;;;;;41.75;14.62;101378.69;4945189;28;45706;-81
2022/05/17 11:23:28;;;;;;;;;1.00;1.00;;;;;41.87;15.10;101378.44;4950835;28;46564;-81
2022/05/17 11:26:28;;;;;;;;;1.00;1.00;;;;;41.85;15.06;101366.59;4949376;28;45470;-81
2022/05/17 11:29:23;;;;;;;;;1.00;1.00;;;;;41.82;15.34;101345.50;4934875;28;45587;-79
2022/05/17 11:32:17;;;;;;;;;2.00;2.00;;;;;41.95;15.28;101333.94;4917571;28;45531;-80
2022/05/17 11:34:45;;;;;;;;;3.25;3.00;;;;;41.96;15.73;101308.69;4917303;28;48420;-80
2022/05/17 11:37:31;;;;;;;;;2.00;2.00;;;;;42.42;15.16;101349.41;4934074;28;45625;-80
2022/05/17 11:39:58;;;;;;;;;5.00;3.00;;;;;42.39;15.03;101339.44;5007772;28;45615;-80
2022/05/17 11:42:33;;;;;;;;;3.00;3.00;;;;;42.28;15.16;101314.63;4993912;28;45585;-80
2022/05/17 11:45:49;;;;;;;;;2.00;2.00;;;;;42.50;14.33;101341.94;5001220;28;46218;-80
2022/05/17 11:48:42;;;;;;;;;2.00;2.00;;;;;42.55;15.13;101344.25;5015675;28;45673;-80
2022/05/17 11:51:07;;;;;;;;;1.75;1.75;;;;;42.60;14.74;101333.44;5031455;28;45404;-80
2022/05/17 11:53:41;;;;;;;;;3.33;2.00;;;;;42.64;15.29;101309.78;5030273;28;45550;-81
2022/05/17 11:56:19;;;;;;;;;2.25;2.25;;;;;42.81;14.88;101334.94;5011104;28;47917;-81